Time;durP1;ratioP1;P1;durP2;ratioP2;P2;SDS_P1;SDS_P2;PMS_P1;PMS_P2;Temp;Humidity;BMP_temperature;BMP_pressure;BME280_temperature;BME280_humidity;BME280_pressure;Samples;Min_cycle;Max_cycle;Signal;HPM_P1;HPM_P2
2023/12/03 00:01:26;;;;;;;28.67;13.40;;;;;;;-1.95;89.07;99673.91;5114862;27;20239;-60
2023/12/03 00:03:54;;;;;;;24.03;12.83;;;;;;;-1.92;89.00;99679.03;5115109;28;20619;-62
2023/12/03 00:06:23;;;;;;;26.67;11.83;;;;;;;-1.92;88.57;99679.03;5114340;28;20655;-63
2023/12/03 00:08:51;;;;;;;26.00;12.47;;;;;;;-1.87;88.78;99686.78;5108551;27;20208;-60
2023/12/03 00:11:19;;;;;;;25.90;12.57;;;;;;;-1.90;88.15;99681.63;5112226;27;20620;-65
2023/12/03 00:13:47;;;;;;;26.33;12.37;;;;;;;-1.91;88.32;99685.81;5106190;27;20210;-61
2023/12/03 00:16:15;;;;;;;22.80;11.93;;;;;;;-1.90;88.36;99691.72;5113265;28;20582;-62
2023/12/03 00:18:45;;;;;;;26.33;12.50;;;;;;;-1.89;88.37;99688.38;5113487;27;20674;-62
2023/12/03 00:21:13;;;;;;;24.87;12.27;;;;;;;-1.87;88.40;99700.25;5116012;27;20639;-63
2023/12/03 00:23:41;;;;;;;24.47;12.40;;;;;;;-1.88;88.09;99695.13;5113476;27;20303;-65
2023/12/03 00:26:08;;;;;;;24.90;11.53;;;;;;;-1.88;87.92;99698.53;5114558;28;20299;-61
2023/12/03 00:28:36;;;;;;;24.93;12.53;;;;;;;-1.89;88.32;99695.97;5119009;27;20203;-62
2023/12/03 00:31:05;;;;;;;23.17;11.30;;;;;;;-1.89;88.20;99701.00;5111965;27;20620;-63
2023/12/03 00:33:33;;;;;;;21.07;10.77;;;;;;;-1.85;87.93;99710.41;5109350;27;20219;-65
2023/12/03 00:36:02;;;;;;;22.93;11.33;;;;;;;-1.85;88.15;99710.41;5115707;27;20216;-62
2023/12/03 00:38:30;;;;;;;24.67;12.83;;;;;;;-1.85;87.73;99707.88;5105970;27;20674;-61
2023/12/03 00:40:58;;;;;;;21.30;11.03;;;;;;;-1.85;87.55;99710.41;5113142;27;20208;-61
2023/12/03 00:43:25;;;;;;;23.47;11.67;;;;;;;-1.86;87.80;99711.22;5114126;28;20200;-61
2023/12/03 00:45:54;;;;;;;24.40;11.43;;;;;;;-1.87;87.70;99725.50;5114312;27;20200;-65
2023/12/03 00:48:22;;;;;;;23.63;12.40;;;;;;;-1.87;87.90;99722.97;5112950;27;20291;-63
2023/12/03 00:50:50;;;;;;;22.33;11.83;;;;;;;-1.85;87.96;99718.81;5104509;28;20291;-62
2023/12/03 00:53:19;;;;;;;22.53;11.33;;;;;;;-1.88;87.46;99718.72;5113938;28;20222;-60
2023/12/03 00:55:47;;;;;;;24.83;12.00;;;;;;;-1.88;87.58;99728.81;5111089;27;20976;-60
2023/12/03 00:58:15;;;;;;;26.00;11.63;;;;;;;-1.88;88.02;99727.97;5114468;27;20200;-61
2023/12/03 01:00:42;;;;;;;22.67;10.80;;;;;;;-1.85;87.93;99740.69;5113820;28;20192;-61
2023/12/03 01:03:09;;;;;;;19.47;11.10;;;;;;;-1.86;87.76;99731.41;5104527;27;20283;-62
2023/12/03 01:05:37;;;;;;;21.23;10.57;;;;;;;-1.86;88.26;99744.03;5117616;27;20302;-61
2023/12/03 01:08:05;;;;;;;23.60;11.17;;;;;;;-1.87;88.38;99748.22;5096258;28;20228;-63
2023/12/03 01:10:35;;;;;;;23.23;11.57;;;;;;;-1.85;87.97;99755.84;5108823;27;20202;-62
2023/12/03 01:13:02;;;;;;;20.37;10.70;;;;;;;-1.85;88.09;99758.38;5112886;27;20211;-61
2023/12/03 01:15:30;;;;;;;24.47;11.57;;;;;;;-1.84;88.17;99767.66;5101720;28;20211;-64
2023/12/03 01:17:58;;;;;;;21.70;11.63;;;;;;;-1.82;88.07;99782.06;5113850;27;20721;-63
2023/12/03 01:20:27;;;;;;;23.80;11.63;;;;;;;-1.87;88.19;99778.53;5113110;28;20200;-63
2023/12/03 01:22:55;;;;;;;21.87;11.03;;;;;;;-1.86;88.40;99779.38;5113045;27;20262;-61
2023/12/03 01:25:23;;;;;;;24.57;11.10;;;;;;;-1.84;88.45;99777.75;5105051;28;20227;-60
2023/12/03 01:27:52;;;;;;;22.73;10.93;;;;;;;-1.86;88.36;99780.25;5113013;27;20303;-62
2023/12/03 01:30:20;;;;;;;23.63;11.77;;;;;;;-1.83;88.84;99779.50;5111949;28;20216;-59
2023/12/03 01:32:48;;;;;;;21.03;10.17;;;;;;;-1.82;88.91;99779.53;5117998;27;20678;-61
2023/12/03 01:35:16;;;;;;;22.47;10.47;;;;;;;-1.75;89.00;99783.13;5102198;28;20204;-60
2023/12/03 01:37:44;;;;;;;20.67;10.60;;;;;;;-1.73;88.62;99781.50;5110972;27;20209;-61
2023/12/03 01:40:12;;;;;;;22.30;10.70;;;;;;;-1.67;88.37;99783.38;5114813;27;20710;-60
2023/12/03 01:42:40;;;;;;;21.60;10.57;;;;;;;-1.69;88.28;99785.88;5111500;28;20632;-65
2023/12/03 01:45:10;;;;;;;19.13;10.93;;;;;;;-1.73;88.23;99781.50;5113074;28;20303;-60
2023/12/03 01:47:38;;;;;;;21.30;10.30;;;;;;;-1.72;88.42;99788.28;5113442;27;20196;-64
2023/12/03 01:50:08;;;;;;;23.20;10.43;;;;;;;-1.73;88.49;99791.59;5091963;27;20228;-59
2023/12/03 01:52:36;;;;;;;17.00;9.67;;;;;;;-1.72;88.35;99793.34;5101195;28;20554;-62
2023/12/03 01:55:06;;;;;;;18.10;9.57;;;;;;;-1.75;88.35;99789.03;5106927;28;20202;-58
2023/12/03 01:57:34;;;;;;;24.23;11.37;;;;;;;-1.74;88.14;99789.88;5099088;27;20624;-60
2023/12/03 02:00:04;;;;;;;20.80;10.17;;;;;;;-1.75;88.83;99791.56;5120140;27;20196;-59
2023/12/03 02:02:33;;;;;;;20.57;10.60;;;;;;;-1.78;88.54;99793.13;5112792;27;20478;-61
2023/12/03 02:05:01;;;;;;;17.47;10.17;;;;;;;-1.80;88.47;99789.72;5111525;28;20235;-61
2023/12/03 02:07:29;;;;;;;20.67;10.93;;;;;;;-1.80;88.58;99797.28;5105726;27;20229;-60
2023/12/03 02:09:59;;;;;;;22.97;9.83;;;;;;;-1.79;88.90;99796.47;5101744;28;20200;-60
2023/12/03 02:12:28;;;;;;;22.37;10.67;;;;;;;-1.84;88.75;99806.41;5112027;27;20192;-62
2023/12/03 02:14:56;;;;;;;19.87;10.63;;;;;;;-1.83;88.63;99810.66;5110116;28;20241;-62
2023/12/03 02:17:23;;;;;;;19.10;9.37;;;;;;;-1.84;88.83;99818.16;5110994;27;20247;-59
2023/12/03 02:19:53;;;;;;;21.40;10.73;;;;;;;-1.84;88.79;99823.22;5119375;27;20720;-60
2023/12/03 02:22:21;;;;;;;21.50;11.10;;;;;;;-1.87;88.77;99818.94;5111935;27;20199;-61
2023/12/03 02:24:50;;;;;;;21.23;10.63;;;;;;;-1.85;89.25;99826.53;5115414;27;20218;-59
2023/12/03 02:27:18;;;;;;;18.50;9.83;;;;;;;-1.85;89.04;99824.03;5108553;27;20558;-60
2023/12/03 02:29:47;;;;;;;20.10;10.27;;;;;;;-1.86;88.99;99829.88;5104933;27;20211;-59
2023/12/03 02:32:15;;;;;;;18.97;10.47;;;;;;;-1.86;88.74;99828.22;5114144;27;20687;-61
2023/12/03 02:34:43;;;;;;;18.90;10.23;;;;;;;-1.86;89.17;99838.31;5101403;28;20201;-61
2023/12/03 02:37:11;;;;;;;21.83;10.70;;;;;;;-1.88;89.11;99842.44;5104064;28;20203;-61
2023/12/03 02:39:39;;;;;;;21.63;10.53;;;;;;;-1.87;88.75;99845.84;5111911;27;20195;-60
2023/12/03 02:42:08;;;;;;;24.13;11.00;;;;;;;-1.83;88.96;99852.72;5130044;27;20237;-61
2023/12/03 02:44:36;;;;;;;19.97;10.97;;;;;;;-1.81;89.39;99848.56;5112104;28;20682;-59
2023/12/03 02:47:04;;;;;;;22.87;11.10;;;;;;;-1.78;88.79;99858.78;5097549;28;20573;-59
2023/12/03 02:49:33;;;;;;;18.20;10.30;;;;;;;-1.73;88.75;99862.31;5110428;27;20200;-61
2023/12/03 02:52:01;;;;;;;19.27;10.13;;;;;;;-1.71;88.52;99865.78;5111393;28;20216;-59
2023/12/03 02:54:29;;;;;;;20.23;11.07;;;;;;;-1.73;88.25;99868.25;5098170;28;20838;-64
2023/12/03 02:56:57;;;;;;;22.07;11.50;;;;;;;-1.72;88.20;99869.97;5099722;28;20284;-63
2023/12/03 02:59:26;;;;;;;24.43;10.83;;;;;;;-1.67;88.63;99872.66;5116148;27;20646;-65
2023/12/03 03:01:54;;;;;;;20.90;10.83;;;;;;;-1.64;88.53;99876.94;5112365;28;20202;-63
2023/12/03 03:04:22;;;;;;;22.80;11.67;;;;;;;-1.65;88.13;99881.16;5098087;28;20201;-63
2023/12/03 03:06:50;;;;;;;22.27;11.33;;;;;;;-1.59;88.23;99885.53;5101531;28;20230;-59
2023/12/03 03:09:18;;;;;;;24.50;11.40;;;;;;;-1.54;88.24;99884.91;5103850;28;20204;-60
2023/12/03 03:11:45;;;;;;;20.70;10.57;;;;;;;-1.52;87.98;99888.31;5110623;27;20211;-59
2023/12/03 03:14:13;;;;;;;23.10;11.37;;;;;;;-1.49;87.70;99897.69;5110554;28;20231;-59
2023/12/03 03:16:43;;;;;;;22.67;12.13;;;;;;;-1.49;87.32;99903.59;5093609;28;20241;-60
2023/12/03 03:19:10;;;;;;;25.13;12.30;;;;;;;-1.48;87.61;99912.88;5111629;28;20685;-58
2023/12/03 03:21:39;;;;;;;22.70;11.93;;;;;;;-1.49;87.02;99911.16;5110658;28;20211;-60
2023/12/03 03:24:07;;;;;;;21.60;11.80;;;;;;;-1.51;87.21;99917.84;5100258;28;20290;-59
2023/12/03 03:26:36;;;;;;;22.63;12.13;;;;;;;-1.46;87.00;99925.59;5111262;28;20261;-60
2023/12/03 03:29:05;;;;;;;21.27;12.47;;;;;;;-1.43;87.33;99922.31;5100787;28;20276;-61
2023/12/03 03:31:34;;;;;;;25.50;12.63;;;;;;;-1.43;87.03;99928.22;5113932;28;20203;-59
2023/12/03 03:34:04;;;;;;;24.53;11.53;;;;;;;-1.42;87.38;99926.56;5104125;28;20642;-61
2023/12/03 03:36:32;;;;;;;24.10;12.70;;;;;;;-1.42;86.68;99929.94;5100586;28;20277;-60
2023/12/03 03:39:00;;;;;;;24.07;12.67;;;;;;;-1.37;86.74;99932.63;5114863;28;20211;-61
2023/12/03 03:41:29;;;;;;;22.70;12.67;;;;;;;-1.37;86.62;99935.13;5104142;28;20257;-61
2023/12/03 03:43:56;;;;;;;22.20;12.63;;;;;;;-1.36;86.56;99937.72;5099339;28;20204;-61
2023/12/03 03:46:24;;;;;;;27.37;13.47;;;;;;;-1.36;86.61;99937.72;5103013;28;20216;-68
2023/12/03 03:48:52;;;;;;;22.13;13.17;;;;;;;-1.34;86.45;99938.63;5104168;28;20200;-62
2023/12/03 03:51:22;;;;;;;25.37;13.27;;;;;;;-1.31;86.61;99937.88;5123391;28;20643;-62
2023/12/03 03:53:50;;;;;;;28.83;15.07;;;;;;;-1.31;85.97;99933.69;5104875;28;20200;-61
2023/12/03 03:56:18;;;;;;;26.10;12.90;;;;;;;-1.31;86.38;99933.69;5114151;28;20197;-63
2023/12/03 03:58:46;;;;;;;25.47;13.20;;;;;;;-1.25;86.34;99940.63;5110903;28;20204;-63
2023/12/03 04:01:14;;;;;;;25.83;13.57;;;;;;;-1.24;86.02;99944.88;5112924;28;20203;-61
2023/12/03 04:03:42;;;;;;;24.33;12.00;;;;;;;-1.23;85.86;99941.53;5110332;28;20212;-61
2023/12/03 04:06:11;;;;;;;26.13;12.57;;;;;;;-1.21;85.97;99955.09;5107215;28;20220;-62
2023/12/03 04:08:41;;;;;;;22.23;12.53;;;;;;;-1.25;85.66;99951.59;5105922;28;20201;-61
2023/12/03 04:11:09;;;;;;;20.27;12.30;;;;;;;-1.23;85.68;99956.69;5104013;28;20241;-60
2023/12/03 04:13:37;;;;;;;24.50;12.97;;;;;;;-1.24;85.81;99954.97;5097945;28;20203;-61
2023/12/03 04:16:06;;;;;;;21.73;12.77;;;;;;;-1.24;85.61;99954.97;5103470;28;20251;-63
2023/12/03 04:18:34;;;;;;;25.63;12.70;;;;;;;-1.26;85.61;99951.53;5117936;27;20625;-61
2023/12/03 04:21:14;;;;;;;23.07;11.90;;;;;;;-1.26;85.47;99954.91;5114476;28;20290;-61
2023/12/03 04:23:44;;;;;;;25.63;12.40;;;;;;;-1.23;85.56;99961.75;5116488;27;20211;-60
2023/12/03 04:26:12;;;;;;;26.03;12.63;;;;;;;-1.22;85.43;99961.78;5107760;28;20224;-58
2023/12/03 04:28:41;;;;;;;26.50;13.57;;;;;;;-1.20;85.44;99971.13;5114802;27;20639;-64
2023/12/03 04:31:21;;;;;;;24.80;12.40;;;;;;;-1.20;85.22;99973.63;5100038;27;20288;-59
2023/12/03 04:33:50;;;;;;;25.33;12.30;;;;;;;-1.22;85.28;99976.09;5111344;28;20647;-63
2023/12/03 04:36:19;;;;;;;24.20;13.03;;;;;;;-1.22;85.07;99979.47;5108289;27;20242;-62
2023/12/03 04:38:48;;;;;;;23.37;12.67;;;;;;;-1.22;85.04;99974.44;5114292;27;20307;-61
2023/12/03 04:41:16;;;;;;;21.20;12.00;;;;;;;-1.21;85.07;99980.38;5115642;27;20654;-60
2023/12/03 04:43:44;;;;;;;25.50;13.13;;;;;;;-1.19;85.29;99981.25;5108468;27;20205;-62
2023/12/03 04:46:12;;;;;;;26.20;12.80;;;;;;;-1.19;85.35;99968.63;5113967;27;20209;-61
2023/12/03 04:48:42;;;;;;;25.87;13.40;;;;;;;-1.20;84.92;99973.63;5107832;28;20246;-59
2023/12/03 04:51:12;;;;;;;23.50;12.33;;;;;;;-1.23;84.68;99975.25;5105737;28;20199;-60
2023/12/03 04:53:40;;;;;;;23.30;11.90;;;;;;;-1.24;84.82;99980.25;5115098;27;20228;-64
2023/12/03 04:56:10;;;;;;;22.13;12.10;;;;;;;-1.24;85.07;99991.22;5112914;28;20296;-60
2023/12/03 04:58:38;;;;;;;24.03;12.30;;;;;;;-1.23;84.90;100002.19;5114416;27;20579;-60
2023/12/03 05:01:06;;;;;;;24.83;12.67;;;;;;;-1.24;84.97;99997.94;5115484;27;20750;-59
2023/12/03 05:03:34;;;;;;;26.10;12.67;;;;;;;-1.27;84.93;100005.41;5109937;27;20223;-60
2023/12/03 05:06:02;;;;;;;25.30;13.17;;;;;;;-1.30;85.13;100006.16;5105189;27;20213;-64
2023/12/03 05:08:30;;;;;;;25.43;12.67;;;;;;;-1.27;85.36;100015.53;5114198;27;20230;-62
2023/12/03 05:10:58;;;;;;;32.67;15.20;;;;;;;-1.24;85.21;100020.69;5110312;27;20209;-67
2023/12/03 05:13:27;;;;;;;34.07;15.63;;;;;;;-1.24;85.45;100025.75;5114501;27;20684;-64
2023/12/03 05:15:55;;;;;;;33.30;17.53;;;;;;;-1.23;85.33;100022.41;5113574;27;20712;-58
2023/12/03 05:18:23;;;;;;;30.93;14.80;;;;;;;-1.23;85.45;100028.31;5119332;27;20207;-65
2023/12/03 05:20:51;;;;;;;29.37;14.43;;;;;;;-1.22;85.69;100029.19;5109948;27;20598;-61
2023/12/03 05:23:19;;;;;;;27.80;12.70;;;;;;;-1.24;85.29;100028.28;5103068;28;20210;-60
2023/12/03 05:25:47;;;;;;;28.90;14.03;;;;;;;-1.20;85.53;100031.78;5116891;27;20563;-59
2023/12/03 05:28:15;;;;;;;29.50;12.87;;;;;;;-1.18;85.36;100036.06;5106359;28;20196;-61
2023/12/03 05:30:45;;;;;;;29.43;12.73;;;;;;;-1.16;85.57;100039.53;5109518;28;20677;-59
2023/12/03 05:33:13;;;;;;;26.57;13.20;;;;;;;-1.12;85.54;100043.88;5105622;27;20258;-60
2023/12/03 05:35:41;;;;;;;25.47;13.33;;;;;;;-1.13;84.89;100038.78;5124143;27;20208;-62
2023/12/03 05:38:09;;;;;;;29.53;13.73;;;;;;;-1.10;85.58;100039.75;5112886;28;20208;-59
2023/12/03 05:40:37;;;;;;;26.23;12.97;;;;;;;-1.09;85.29;100046.50;5114583;27;20208;-61
2023/12/03 05:43:05;;;;;;;26.60;12.47;;;;;;;-1.04;85.19;100052.59;5109010;27;20203;-59
2023/12/03 05:45:33;;;;;;;25.17;12.23;;;;;;;-1.01;85.25;100056.91;5108319;27;21265;-59
2023/12/03 05:48:02;;;;;;;23.33;11.50;;;;;;;-1.00;85.02;100056.94;5109944;27;20235;-60
2023/12/03 05:50:31;;;;;;;29.60;12.30;;;;;;;-0.98;84.89;100062.06;5105858;27;20228;-61
2023/12/03 05:52:58;;;;;;;27.43;12.67;;;;;;;-0.99;84.62;100067.94;5112540;28;20203;-61
2023/12/03 05:55:26;;;;;;;23.97;12.13;;;;;;;-0.97;84.86;100081.47;5109084;27;20228;-61
2023/12/03 05:57:53;;;;;;;25.43;12.23;;;;;;;-0.98;84.88;100080.63;5113166;27;20230;-62
2023/12/03 06:00:21;;;;;;;26.27;12.33;;;;;;;-0.96;84.79;100083.19;5112393;27;20735;-60
2023/12/03 06:02:49;;;;;;;26.67;12.00;;;;;;;-0.95;84.62;100079.03;5100591;27;20216;-61
2023/12/03 06:05:18;;;;;;;27.70;12.97;;;;;;;-0.97;84.74;100081.47;5103605;27;20195;-60
2023/12/03 06:07:46;;;;;;;27.03;12.20;;;;;;;-0.95;84.42;100086.59;5115882;27;20258;-62
2023/12/03 06:10:14;;;;;;;26.17;12.90;;;;;;;-0.99;84.68;100094.09;5106451;27;20643;-61
2023/12/03 06:12:42;;;;;;;26.73;13.50;;;;;;;-0.99;84.73;100094.09;5110702;28;20642;-61
2023/12/03 06:15:11;;;;;;;23.87;13.23;;;;;;;-1.00;84.68;100096.53;5113130;27;20245;-61
2023/12/03 06:17:39;;;;;;;25.80;13.17;;;;;;;-0.95;84.50;100104.31;5111104;27;20231;-62
2023/12/03 06:20:08;;;;;;;29.53;13.47;;;;;;;-0.93;84.71;100105.22;5101238;28;20283;-60
2023/12/03 06:22:38;;;;;;;32.20;13.70;;;;;;;-0.91;84.66;100109.53;5106876;27;20584;-62
2023/12/03 06:25:06;;;;;;;24.97;13.33;;;;;;;-0.88;84.36;100106.25;5113602;27;20605;-63
2023/12/03 06:27:34;;;;;;;28.23;12.70;;;;;;;-0.90;84.58;100113.78;5111416;27;20251;-60
2023/12/03 06:30:02;;;;;;;24.83;12.97;;;;;;;-0.92;84.23;100117.03;5110666;27;20225;-60
2023/12/03 06:32:30;;;;;;;29.13;13.63;;;;;;;-0.91;84.13;100123.84;5114597;27;20654;-61
2023/12/03 06:34:58;;;;;;;26.97;13.20;;;;;;;-0.88;84.30;100121.44;5116135;27;20367;-62
2023/12/03 06:37:26;;;;;;;28.10;13.63;;;;;;;-0.85;84.34;100129.09;5104555;27;20191;-60
2023/12/03 06:39:55;;;;;;;27.67;13.57;;;;;;;-0.82;83.92;100121.63;5107581;27;20210;-60
2023/12/03 06:42:23;;;;;;;32.03;14.13;;;;;;;-0.79;84.18;100126.78;5114711;27;20232;-60
2023/12/03 06:44:53;;;;;;;30.60;14.00;;;;;;;-0.74;84.06;100120.22;5108156;28;20250;-59
2023/12/03 06:47:21;;;;;;;30.47;14.50;;;;;;;-0.72;83.45;100128.72;5114147;27;20215;-62
2023/12/03 06:49:49;;;;;;;30.37;14.17;;;;;;;-0.74;83.79;100132.88;5116501;27;20753;-62
2023/12/03 06:52:17;;;;;;;32.93;14.67;;;;;;;-0.72;83.76;100133.78;5118277;27;20208;-61
2023/12/03 06:54:45;;;;;;;33.33;14.57;;;;;;;-0.74;83.64;100135.41;5112050;27;20204;-63
2023/12/03 06:57:14;;;;;;;31.03;14.07;;;;;;;-0.82;83.68;100142.72;5102241;27;20215;-62
2023/12/03 06:59:42;;;;;;;33.97;15.47;;;;;;;-0.81;84.19;100147.00;5111039;27;20212;-63
2023/12/03 07:02:10;;;;;;;35.77;14.87;;;;;;;-0.82;83.59;100151.97;5103972;28;20660;-64
2023/12/03 07:04:38;;;;;;;28.67;14.50;;;;;;;-0.82;84.00;100157.03;5105552;28;20290;-62
2023/12/03 07:07:06;;;;;;;27.57;14.43;;;;;;;-0.89;84.13;100155.94;5105327;27;20579;-61
2023/12/03 07:09:34;;;;;;;31.77;15.60;;;;;;;-0.90;84.13;100155.91;5111491;28;20614;-63
2023/12/03 07:12:08;;;;;;;30.77;14.57;;;;;;;-0.94;84.78;100161.66;5107380;28;20235;-64
2023/12/03 07:14:37;;;;;;;29.90;15.63;;;;;;;-0.99;84.38;100166.56;5105513;27;20192;-63
2023/12/03 07:17:06;;;;;;;28.73;14.30;;;;;;;-1.08;84.58;100164.53;5106561;28;20231;-64
2023/12/03 07:19:34;;;;;;;27.53;13.73;;;;;;;-1.06;85.07;100160.41;5106743;28;20558;-62
2023/12/03 07:22:02;;;;;;;27.87;13.73;;;;;;;-1.02;85.13;100161.38;5108635;28;20298;-61
2023/12/03 07:24:30;;;;;;;28.97;14.37;;;;;;;-0.97;85.35;100164.94;5107448;28;20559;-61
2023/12/03 07:26:58;;;;;;;27.30;14.77;;;;;;;-0.95;85.07;100167.53;5113249;28;20254;-62
2023/12/03 07:29:26;;;;;;;29.07;14.30;;;;;;;-0.96;84.54;100174.22;5108341;28;20543;-61
2023/12/03 07:31:55;;;;;;;27.47;13.73;;;;;;;-1.00;84.69;100168.19;5112145;28;20204;-61
2023/12/03 07:34:23;;;;;;;25.53;13.30;;;;;;;-1.00;84.59;100172.41;5101886;28;20347;-63
2023/12/03 07:36:51;;;;;;;28.13;13.77;;;;;;;-0.99;84.73;100175.00;5115248;28;20208;-62
2023/12/03 07:39:19;;;;;;;24.93;13.13;;;;;;;-0.95;84.59;100180.19;5109048;28;20214;-64
2023/12/03 07:41:50;;;;;;;28.13;13.87;;;;;;;-0.92;84.48;100177.75;5111825;28;20200;-61
2023/12/03 07:44:19;;;;;;;32.40;14.27;;;;;;;-0.90;84.55;100176.13;5113908;28;20669;-64
2023/12/03 07:46:48;;;;;;;26.80;13.97;;;;;;;-1.00;84.25;100183.38;5107947;28;20199;-64
2023/12/03 07:49:17;;;;;;;26.30;12.50;;;;;;;-1.02;84.37;100187.53;5099365;28;20695;-60
2023/12/03 07:51:47;;;;;;;28.17;13.23;;;;;;;-1.01;84.38;100184.19;5104505;28;20215;-62
2023/12/03 07:54:15;;;;;;;24.80;12.67;;;;;;;-1.01;83.99;100179.13;5111057;27;20191;-63
2023/12/03 07:56:43;;;;;;;28.07;13.50;;;;;;;-1.01;83.79;100183.34;5119059;27;20219;-60
2023/12/03 07:59:12;;;;;;;24.57;12.17;;;;;;;-1.04;83.79;100186.59;5117595;27;20725;-61
2023/12/03 08:01:40;;;;;;;22.90;13.00;;;;;;;-0.99;83.88;100182.59;5116756;27;20564;-61
2023/12/03 08:04:08;;;;;;;28.20;13.53;;;;;;;-0.93;84.11;100194.59;5114386;27;20203;-62
2023/12/03 08:06:37;;;;;;;34.50;14.93;;;;;;;-0.91;83.64;100193.00;5120327;27;20203;-65
2023/12/03 08:09:05;;;;;;;29.73;14.83;;;;;;;-0.91;83.38;100189.59;5118340;27;20797;-65
2023/12/03 08:11:33;;;;;;;26.87;14.07;;;;;;;-0.90;83.37;100193.84;5118706;27;20203;-60
2023/12/03 08:14:01;;;;;;;31.00;15.47;;;;;;;-0.86;83.28;100193.16;5107304;27;20393;-61
2023/12/03 08:16:29;;;;;;;27.67;15.50;;;;;;;-0.79;83.67;100195.09;5119437;27;20242;-61
2023/12/03 08:18:57;;;;;;;34.50;15.93;;;;;;;-0.70;82.96;100200.50;5117243;27;20204;-61
2023/12/03 08:21:25;;;;;;;32.87;15.57;;;;;;;-0.63;83.07;100202.41;5117262;27;20714;-59
2023/12/03 08:23:54;;;;;;;29.90;15.00;;;;;;;-0.51;82.79;100196.97;5109018;27;20207;-61
2023/12/03 08:26:22;;;;;;;32.07;15.27;;;;;;;-0.45;81.82;100202.22;5126437;27;20208;-64
2023/12/03 08:28:50;;;;;;;34.53;14.77;;;;;;;-0.38;81.86;100204.16;5125112;27;20267;-61
2023/12/03 08:31:18;;;;;;;29.33;15.10;;;;;;;-0.33;81.44;100204.31;5122150;27;20568;-60
2023/12/03 08:33:46;;;;;;;30.47;14.33;;;;;;;-0.26;80.58;100206.25;5119541;27;20651;-61
2023/12/03 08:36:18;;;;;;;27.80;15.17;;;;;;;-0.18;81.10;100209.91;5117785;27;20719;-59
2023/12/03 08:38:46;;;;;;;29.50;15.20;;;;;;;-0.20;79.33;100211.53;5111731;27;20223;-62
2023/12/03 08:41:15;;;;;;;32.60;15.83;;;;;;;-0.19;79.66;100212.38;5106713;27;20682;-63
2023/12/03 08:43:43;;;;;;;32.17;15.13;;;;;;;-0.27;79.37;100224.78;5118414;27;20199;-62
2023/12/03 08:46:11;;;;;;;29.10;14.63;;;;;;;-0.25;80.04;100215.59;5105242;27;20229;-61
2023/12/03 08:48:39;;;;;;;29.47;15.00;;;;;;;-0.23;79.99;100226.59;5105731;27;20224;-60
2023/12/03 08:51:08;;;;;;;32.47;16.17;;;;;;;-0.23;79.66;100230.81;5109288;27;20244;-63
2023/12/03 08:53:36;;;;;;;33.63;16.70;;;;;;;-0.27;79.96;100220.56;5107853;27;20192;-62
2023/12/03 08:56:04;;;;;;;40.80;16.73;;;;;;;-0.30;79.44;100230.59;5114462;27;20211;-63
2023/12/03 08:58:33;;;;;;;32.53;16.23;;;;;;;-0.32;79.99;100232.22;5116693;27;20218;-61
2023/12/03 09:01:01;;;;;;;35.03;17.47;;;;;;;-0.36;80.34;100244.72;5128207;27;20210;-62
2023/12/03 09:03:29;;;;;;;35.20;17.77;;;;;;;-0.41;80.41;100236.94;5109107;27;20732;-60
2023/12/03 09:05:57;;;;;;;33.30;16.30;;;;;;;-0.43;80.67;100246.19;5104532;27;20250;-64
2023/12/03 09:08:25;;;;;;;33.87;15.93;;;;;;;-0.43;81.12;100252.91;5113782;27;20746;-62
2023/12/03 09:10:53;;;;;;;33.90;17.50;;;;;;;-0.45;81.30;100257.03;5106211;28;20247;-61
2023/12/03 09:13:21;;;;;;;29.63;15.03;;;;;;;-0.38;81.20;100262.38;5099528;27;20192;-61
2023/12/03 09:15:50;;;;;;;32.10;16.00;;;;;;;-0.37;81.19;100261.59;5102682;27;20199;-61
2023/12/03 09:18:18;;;;;;;31.90;15.37;;;;;;;-0.29;81.41;100261.84;5104306;28;20212;-61
2023/12/03 09:20:46;;;;;;;28.90;14.43;;;;;;;-0.26;81.58;100256.88;5119892;27;20200;-62
2023/12/03 09:23:16;;;;;;;31.30;14.30;;;;;;;-0.31;81.20;100263.47;5111141;27;20225;-62
2023/12/03 09:25:44;;;;;;;22.97;13.40;;;;;;;-0.31;81.17;100266.84;5115606;27;20216;-65
2023/12/03 09:28:12;;;;;;;26.53;13.67;;;;;;;-0.25;81.92;100263.69;5109470;27;20204;-61
2023/12/03 09:30:40;;;;;;;29.63;14.07;;;;;;;-0.23;82.36;100267.13;5111965;27;20200;-60
2023/12/03 09:33:09;;;;;;;29.00;13.10;;;;;;;-0.15;81.71;100268.25;5112574;27;20200;-58
2023/12/03 09:35:37;;;;;;;28.77;14.20;;;;;;;-0.11;81.29;100254.91;5105110;28;20235;-60
2023/12/03 09:38:05;;;;;;;26.33;14.80;;;;;;;-0.08;81.12;100267.66;5114013;27;20200;-60
2023/12/03 09:40:33;;;;;;;27.73;14.13;;;;;;;-0.05;81.51;100267.75;5112679;27;20204;-61
2023/12/03 09:43:05;;;;;;;31.10;16.60;;;;;;;-0.05;80.75;100271.97;5114411;27;20200;-62
2023/12/03 09:45:34;;;;;;;34.00;15.97;;;;;;;-0.05;81.48;100269.44;5111526;27;20207;-61
2023/12/03 09:48:03;;;;;;;33.47;17.00;;;;;;;0.01;81.80;100271.34;5114078;27;20545;-60
2023/12/03 09:50:35;;;;;;;32.33;16.83;;;;;;;-0.02;81.33;100278.00;5116845;27;20219;-60
2023/12/03 09:53:06;;;;;;;31.97;17.83;;;;;;;-0.08;81.34;100266.78;5118431;27;20212;-66
2023/12/03 09:55:35;;;;;;;28.50;15.30;;;;;;;-0.07;82.11;100274.47;5116693;27;20257;-59
2023/12/03 09:58:04;;;;;;;27.57;15.20;;;;;;;-0.11;82.26;100277.69;5103064;27;20200;-63
2023/12/03 10:00:32;;;;;;;30.83;15.30;;;;;;;-0.13;82.07;100279.31;5110978;27;20671;-62
2023/12/03 10:03:00;;;;;;;32.90;14.73;;;;;;;-0.15;82.46;100275.84;5099854;27;20234;-60
2023/12/03 10:05:28;;;;;;;29.70;14.23;;;;;;;-0.13;82.45;100279.31;5103188;27;20212;-60
2023/12/03 10:07:58;;;;;;;28.53;13.77;;;;;;;-0.13;82.85;100276.78;5111497;27;20296;-60
2023/12/03 10:10:30;;;;;;;29.57;14.83;;;;;;;-0.11;83.38;100282.78;5115081;27;20681;-60
2023/12/03 10:13:00;;;;;;;28.77;14.70;;;;;;;-0.08;83.25;100292.13;5113338;27;20200;-59
2023/12/03 10:15:28;;;;;;;36.03;16.03;;;;;;;-0.09;83.38;100287.88;5107119;27;20204;-59
2023/12/03 10:17:56;;;;;;;29.47;15.20;;;;;;;-0.11;83.33;100292.91;5107790;27;20236;-62
2023/12/03 10:20:26;;;;;;;32.07;14.27;;;;;;;-0.07;83.58;100294.72;5118637;27;20255;-60
2023/12/03 10:22:58;;;;;;;30.43;14.73;;;;;;;-0.06;83.70;100296.44;5120457;27;20646;-64
2023/12/03 10:25:27;;;;;;;30.40;15.27;;;;;;;-0.06;83.90;100296.44;5114080;27;20200;-62
2023/12/03 10:27:56;;;;;;;28.53;13.73;;;;;;;-0.11;83.53;100299.59;5108261;27;20234;-65
2023/12/03 10:30:24;;;;;;;28.73;14.23;;;;;;;-0.12;84.01;100300.41;5121885;27;20705;-59
2023/12/03 10:32:53;;;;;;;31.97;15.57;;;;;;;-0.09;84.37;100300.53;5122420;27;20239;-62
2023/12/03 10:35:21;;;;;;;29.40;14.83;;;;;;;-0.03;84.70;100304.16;5102713;28;20196;-61
2023/12/03 10:37:50;;;;;;;31.00;15.67;;;;;;;0.02;84.59;100303.44;5107814;27;20598;-60
2023/12/03 10:40:20;;;;;;;28.43;14.13;;;;;;;0.04;84.15;100301.81;5107705;27;20249;-62
2023/12/03 10:42:48;;;;;;;29.57;14.60;;;;;;;0.08;84.69;100306.19;5107689;27;20239;-61
2023/12/03 10:45:16;;;;;;;30.60;14.17;;;;;;;0.06;83.70;100298.53;5110131;27;20631;-63
2023/12/03 10:47:45;;;;;;;27.63;13.57;;;;;;;0.08;84.05;100308.75;5116699;27;20211;-63
2023/12/03 10:50:14;;;;;;;28.03;13.80;;;;;;;0.11;84.05;100303.75;5114009;27;20228;-61
2023/12/03 10:52:42;;;;;;;27.00;13.13;;;;;;;0.14;83.74;100308.94;5096714;27;20212;-64
2023/12/03 10:55:10;;;;;;;31.73;13.67;;;;;;;0.14;84.14;100304.72;5104428;28;20250;-62
2023/12/03 10:57:49;;;;;;;27.37;13.17;;;;;;;0.18;83.75;100323.41;5111495;27;20223;-63
2023/12/03 11:00:20;;;;;;;26.10;12.97;;;;;;;0.20;83.67;100319.28;5115475;27;20658;-63
2023/12/03 11:02:59;;;;;;;29.77;13.93;;;;;;;0.19;83.90;100317.56;5114028;27;20218;-62
2023/12/03 11:05:32;;;;;;;28.40;13.87;;;;;;;0.19;83.85;100330.25;5108663;28;20562;-62
2023/12/03 11:08:02;;;;;;;29.60;15.03;;;;;;;0.20;83.87;100320.16;5113095;27;20191;-63
2023/12/03 11:10:30;;;;;;;33.60;14.40;;;;;;;0.23;83.83;100325.31;5102112;27;20238;-60
2023/12/03 11:13:00;;;;;;;29.70;15.37;;;;;;;0.27;83.70;100341.50;5104935;27;20205;-62
2023/12/03 11:15:29;;;;;;;33.40;15.70;;;;;;;0.26;83.91;100329.66;5106925;27;20239;-60
2023/12/03 11:17:58;;;;;;;29.87;15.20;;;;;;;0.28;84.07;100330.53;5102791;28;20596;-62
2023/12/03 11:20:31;;;;;;;32.63;15.53;;;;;;;0.32;84.26;100339.13;5102842;28;20197;-62